createdAt,value
2019-03-16T00:00:06.984Z,9.20
2019-03-16T00:02:37.677Z,9.20
2019-03-16T00:05:08.927Z,9.20
2019-03-16T00:07:39.820Z,9.20
2019-03-16T00:10:10.598Z,9.20
2019-03-16T00:12:41.427Z,9.20
2019-03-16T00:15:12.300Z,9.10
2019-03-16T00:17:43.060Z,9.20
2019-03-16T00:20:13.873Z,9.20
2019-03-16T00:22:44.768Z,9.20
2019-03-16T00:25:15.601Z,9.20
2019-03-16T00:27:46.354Z,9.20
2019-03-16T00:30:17.141Z,9.20
2019-03-16T00:32:47.933Z,9.20
2019-03-16T00:35:18.700Z,9.30
2019-03-16T00:37:49.506Z,9.30
2019-03-16T00:40:20.292Z,9.30
2019-03-16T00:42:52.399Z,9.30
2019-03-16T00:45:24.236Z,9.30
2019-03-16T00:47:54.951Z,9.30
2019-03-16T00:50:25.790Z,9.30
2019-03-16T00:52:56.501Z,9.30
2019-03-16T00:55:27.189Z,9.30
2019-03-16T00:57:58.034Z,9.30
2019-03-16T01:00:31.354Z,9.30
2019-03-16T01:03:02.100Z,9.20
2019-03-16T01:05:32.831Z,9.30
2019-03-16T01:08:03.706Z,9.30
2019-03-16T01:10:34.601Z,9.30
2019-03-16T01:13:05.485Z,9.30
2019-03-16T01:15:37.013Z,9.20
2019-03-16T01:18:07.955Z,9.20
2019-03-16T01:20:38.717Z,9.20
2019-03-16T01:23:09.546Z,9.20
2019-03-16T01:25:40.349Z,9.20
2019-03-16T01:28:11.205Z,9.20
2019-03-16T01:30:42.060Z,9.20
2019-03-16T01:33:12.849Z,9.20
2019-03-16T01:35:43.567Z,9.20
2019-03-16T01:38:14.352Z,9.20
2019-03-16T01:40:45.280Z,9.20
2019-03-16T01:43:16.137Z,9.20
2019-03-16T01:45:46.861Z,9.20
2019-03-16T01:48:17.675Z,9.20
2019-03-16T01:50:48.450Z,9.20
2019-03-16T01:53:19.369Z,9.20
2019-03-16T01:55:50.323Z,9.20
2019-03-16T01:58:21.093Z,9.20
2019-03-16T02:00:51.952Z,9.20
2019-03-16T02:03:22.853Z,9.20
2019-03-16T02:05:53.708Z,9.10
2019-03-16T02:08:24.531Z,9.10
2019-03-16T02:10:55.403Z,9.20
2019-03-16T02:13:26.197Z,9.20
2019-03-16T02:16:09.906Z,9.20
2019-03-16T02:18:29.432Z,9.20
2019-03-16T02:21:00.424Z,9.20
2019-03-16T02:23:31.252Z,9.10
2019-03-16T02:26:02.072Z,9.10
2019-03-16T02:28:32.952Z,9.10
2019-03-16T02:31:03.738Z,9.10
2019-03-16T02:33:34.486Z,9.10
2019-03-16T02:36:05.313Z,9.10
2019-03-16T02:38:36.171Z,9.10
2019-03-16T02:41:06.880Z,9.10
2019-03-16T02:43:37.770Z,9.10
2019-03-16T02:46:08.661Z,9.10
2019-03-16T02:48:39.628Z,9.10
2019-03-16T02:51:10.455Z,9.20
2019-03-16T02:53:41.326Z,9.20
2019-03-16T02:56:12.177Z,9.20
2019-03-16T02:58:43.026Z,9.20
2019-03-16T03:01:13.824Z,9.10
2019-03-16T03:03:44.623Z,9.10
2019-03-16T03:06:15.555Z,9.10
2019-03-16T03:08:46.222Z,9.20
2019-03-16T03:11:17.025Z,9.10
2019-03-16T03:13:47.820Z,9.20
2019-03-16T03:16:19.836Z,9.20
2019-03-16T03:18:50.702Z,9.10
2019-03-16T03:21:21.507Z,9.20
2019-03-16T03:23:52.268Z,9.10
2019-03-16T03:26:23.127Z,9.10
2019-03-16T03:28:54.033Z,9.10
2019-03-16T03:31:24.865Z,9.10
2019-03-16T03:34:01.109Z,9.20
2019-03-16T03:36:28.264Z,9.10
2019-03-16T03:38:59.039Z,9.10
2019-03-16T03:41:29.985Z,9.10
2019-03-16T03:44:00.976Z,9.10
2019-03-16T03:46:32.492Z,9.10
2019-03-16T03:49:03.577Z,9.10
2019-03-16T03:51:34.396Z,9.00
2019-03-16T03:54:05.459Z,9.00
2019-03-16T03:56:36.293Z,9.00
2019-03-16T03:59:07.610Z,9.00
2019-03-16T04:01:38.369Z,9.00
2019-03-16T04:04:15.607Z,9.00
2019-03-16T04:06:41.754Z,9.00
2019-03-16T04:09:12.626Z,8.90
2019-03-16T04:11:43.484Z,8.90
2019-03-16T04:14:14.253Z,8.90
2019-03-16T04:16:45.168Z,8.90
2019-03-16T04:19:16.023Z,8.90
2019-03-16T04:21:46.948Z,8.90
2019-03-16T04:24:17.853Z,8.80
2019-03-16T04:26:48.681Z,8.90
2019-03-16T04:29:19.417Z,8.90
2019-03-16T04:31:50.218Z,8.90
2019-03-16T04:34:28.966Z,8.90
2019-03-16T04:36:57.787Z,8.90
2019-03-16T04:39:28.583Z,8.90
2019-03-16T04:41:59.378Z,8.90
2019-03-16T04:44:30.215Z,8.90
2019-03-16T04:47:01.281Z,8.90
2019-03-16T04:49:32.285Z,8.90
2019-03-16T04:52:03.196Z,8.90
2019-03-16T04:54:34.036Z,8.90
2019-03-16T04:57:04.919Z,9.00
2019-03-16T04:59:36.685Z,8.90
2019-03-16T05:02:07.492Z,8.90
2019-03-16T05:04:42.591Z,8.90
2019-03-16T05:07:10.727Z,9.00
2019-03-16T05:09:41.548Z,9.00
2019-03-16T05:12:12.453Z,9.00
2019-03-16T05:14:43.290Z,9.00
2019-03-16T05:17:14.045Z,9.00
2019-03-16T05:19:44.865Z,9.00
2019-03-16T05:22:15.570Z,9.00
2019-03-16T05:24:46.308Z,9.00
2019-03-16T05:27:17.059Z,9.00
2019-03-16T05:29:47.760Z,9.10
2019-03-16T05:32:18.483Z,9.10
2019-03-16T05:34:56.314Z,9.00
2019-03-16T05:37:21.827Z,9.10
2019-03-16T05:39:52.662Z,9.10
2019-03-16T05:42:23.556Z,9.10
2019-03-16T05:44:54.361Z,9.10
2019-03-16T05:47:25.164Z,9.10
2019-03-16T05:49:56.179Z,9.20
2019-03-16T05:52:27.156Z,9.20
2019-03-16T05:54:58.086Z,9.20
2019-03-16T05:57:28.923Z,9.20
2019-03-16T05:59:59.769Z,9.20
2019-03-16T06:02:30.665Z,9.20
2019-03-16T06:05:10.572Z,9.20
2019-03-16T06:07:34.280Z,9.30
2019-03-16T06:10:05.653Z,9.30
2019-03-16T06:12:36.400Z,9.30
2019-03-16T06:15:07.491Z,9.30
2019-03-16T06:17:38.359Z,9.30
2019-03-16T06:20:10.097Z,9.30
2019-03-16T06:22:40.935Z,9.40
2019-03-16T06:25:11.995Z,9.40
2019-03-16T06:27:43.684Z,9.50
2019-03-16T06:30:14.536Z,9.50
2019-03-16T06:32:46.172Z,9.60
2019-03-16T06:35:24.318Z,9.50
2019-03-16T06:37:50.080Z,9.60
2019-03-16T06:40:21.441Z,9.60
2019-03-16T06:42:52.310Z,9.70
2019-03-16T06:45:23.245Z,9.70
2019-03-16T06:54:12.461Z,9.80
2019-03-16T06:56:43.387Z,9.80
2019-03-16T06:59:14.343Z,9.90
2019-03-16T07:01:45.252Z,9.90
2019-03-16T07:04:16.134Z,9.90
2019-03-16T07:06:46.982Z,10.00
2019-03-16T07:09:17.761Z,10.00
2019-03-16T07:11:48.448Z,10.10
2019-03-16T07:14:19.433Z,10.10
2019-03-16T07:17:01.588Z,10.10
2019-03-16T07:19:22.615Z,10.20
2019-03-16T07:21:53.435Z,10.20
2019-03-16T07:24:24.295Z,10.20
2019-03-16T07:26:55.117Z,10.30
2019-03-16T07:29:25.873Z,10.40
2019-03-16T07:31:56.738Z,10.50
2019-03-16T07:34:27.554Z,10.50
2019-03-16T07:36:58.359Z,10.60
2019-03-16T07:39:32.081Z,10.60
2019-03-16T07:42:02.867Z,10.70
2019-03-16T07:44:33.699Z,10.70
2019-03-16T07:47:04.537Z,10.80
2019-03-16T07:49:38.546Z,10.80
2019-03-16T07:52:07.989Z,10.80
2019-03-16T07:54:38.793Z,10.80
2019-03-16T07:57:14.257Z,10.90
2019-03-16T08:05:18.645Z,11.10
2019-03-16T08:07:44.997Z,11.10
2019-03-16T08:10:15.309Z,11.00
2019-03-16T08:12:45.753Z,11.10
2019-03-16T08:15:16.104Z,11.30
2019-03-16T08:17:46.446Z,11.30
2019-03-16T08:20:16.904Z,11.40
2019-03-16T08:22:47.329Z,11.60
2019-03-16T08:25:17.869Z,11.80
2019-03-16T08:27:54.055Z,11.80
2019-03-16T08:30:23.518Z,11.90
2019-03-16T08:32:52.721Z,11.80
2019-03-16T08:35:23.140Z,12.00
2019-03-16T08:37:53.568Z,12.00
2019-03-16T08:40:23.942Z,12.30
2019-03-16T08:42:54.415Z,12.30
2019-03-16T08:45:24.885Z,12.70
2019-03-16T08:47:55.381Z,12.80
2019-03-16T08:50:25.986Z,12.90
2019-03-16T08:52:56.445Z,13.20
2019-03-16T08:55:26.850Z,13.40
2019-03-16T08:58:06.146Z,13.20
2019-03-16T09:00:29.660Z,13.10
2019-03-16T09:03:00.002Z,13.40
2019-03-16T09:05:30.360Z,14.10
2019-03-16T09:08:00.834Z,14.40
2019-03-16T09:10:31.347Z,14.50
2019-03-16T09:13:01.832Z,14.20
2019-03-16T09:15:32.320Z,14.20
2019-03-16T09:18:02.808Z,13.80
2019-03-16T09:20:33.307Z,13.70
2019-03-16T09:23:03.781Z,13.60
2019-03-16T09:25:34.244Z,13.30
2019-03-16T09:28:04.650Z,13.20
2019-03-16T09:30:35.092Z,13.00
2019-03-16T09:33:05.556Z,12.90
2019-03-16T09:35:35.957Z,12.60
2019-03-16T09:38:06.302Z,12.40
2019-03-16T09:40:36.782Z,12.30
2019-03-16T09:43:07.183Z,12.40
2019-03-16T09:45:37.633Z,12.30
2019-03-16T09:48:08.008Z,12.30
2019-03-16T09:50:38.455Z,12.40
2019-03-16T09:53:08.794Z,12.40
2019-03-16T09:55:39.116Z,12.40
2019-03-16T09:58:09.623Z,12.40
2019-03-16T10:00:40.081Z,12.50
2019-03-16T10:03:10.463Z,12.50
2019-03-16T10:05:40.904Z,12.60
2019-03-16T10:08:11.266Z,12.50
2019-03-16T10:10:41.570Z,12.50
2019-03-16T10:13:11.998Z,12.60
2019-03-16T10:15:42.433Z,12.40
2019-03-16T10:18:12.800Z,12.40
2019-03-16T10:20:43.160Z,12.40
2019-03-16T10:23:13.609Z,12.30
2019-03-16T10:25:44.079Z,12.30
2019-03-16T10:28:14.400Z,12.20
2019-03-16T10:30:44.726Z,12.20
2019-03-16T10:33:15.158Z,12.30
2019-03-16T10:35:45.596Z,12.30
2019-03-16T10:38:15.997Z,12.40
2019-03-16T10:40:46.537Z,12.40
2019-03-16T10:43:16.992Z,12.50
2019-03-16T10:45:47.431Z,12.50
2019-03-16T10:48:17.890Z,12.50
2019-03-16T10:50:48.378Z,12.60
2019-03-16T10:53:18.840Z,12.80
2019-03-16T10:55:49.221Z,13.00
2019-03-16T10:58:19.648Z,13.00
2019-03-16T11:00:50.158Z,13.00
2019-03-16T11:03:20.464Z,13.00
2019-03-16T11:05:50.942Z,13.00
2019-03-16T11:08:21.337Z,13.10
2019-03-16T11:10:51.714Z,13.30
2019-03-16T11:13:23.418Z,13.30
2019-03-16T11:15:53.834Z,13.40
2019-03-16T11:18:25.873Z,13.80
2019-03-16T11:20:56.469Z,14.20
2019-03-16T11:23:26.838Z,14.30
2019-03-16T11:25:57.314Z,14.30
2019-03-16T11:28:27.649Z,14.60
2019-03-16T11:30:58.099Z,15.20
2019-03-16T11:33:28.480Z,15.50
2019-03-16T11:35:58.901Z,15.60
2019-03-16T11:38:29.437Z,15.70
2019-03-16T11:40:59.949Z,15.40
2019-03-16T11:43:30.314Z,15.70
2019-03-16T11:46:00.758Z,15.80
2019-03-16T11:48:31.199Z,15.60
2019-03-16T11:51:01.630Z,15.90
2019-03-16T11:53:31.969Z,16.80
2019-03-16T11:56:02.418Z,16.80
2019-03-16T11:58:32.890Z,16.20
2019-03-16T12:01:03.385Z,16.10
2019-03-16T12:03:33.836Z,16.50
2019-03-16T12:06:04.282Z,17.40
2019-03-16T12:08:34.637Z,18.80
2019-03-16T12:11:05.180Z,19.80
2019-03-16T12:13:35.569Z,19.70
2019-03-16T12:16:06.019Z,19.10
2019-03-16T12:18:36.502Z,18.20
2019-03-16T12:21:06.953Z,17.40
2019-03-16T12:23:37.445Z,16.70
2019-03-16T12:26:07.885Z,16.30
2019-03-16T12:28:38.222Z,16.10
2019-03-16T12:31:08.596Z,16.00
2019-03-16T12:33:38.952Z,15.80
2019-03-16T12:36:09.467Z,15.70
2019-03-16T12:38:39.942Z,15.40
2019-03-16T12:41:10.368Z,15.30
2019-03-16T12:43:40.698Z,15.00
2019-03-16T12:46:11.047Z,14.70
2019-03-16T12:48:41.376Z,14.50
2019-03-16T12:51:11.824Z,14.30
2019-03-16T12:53:42.319Z,14.40
2019-03-16T12:56:12.667Z,14.50
2019-03-16T12:58:43.296Z,14.60
2019-03-16T13:01:13.756Z,14.70
2019-03-16T13:03:44.272Z,14.70
2019-03-16T13:06:14.727Z,14.80
2019-03-16T13:08:45.198Z,15.00
2019-03-16T13:11:15.708Z,15.40
2019-03-16T13:13:46.028Z,15.60
2019-03-16T13:16:16.748Z,15.90
2019-03-16T13:18:47.189Z,16.10
2019-03-16T13:21:17.626Z,16.20
2019-03-16T13:23:47.998Z,16.40
2019-03-16T13:26:18.397Z,16.20
2019-03-16T13:28:48.713Z,16.10
2019-03-16T13:31:19.117Z,16.00
2019-03-16T13:33:49.554Z,15.90
2019-03-16T13:36:20.013Z,16.10
2019-03-16T13:38:50.399Z,16.30
2019-03-16T13:41:20.766Z,16.20
2019-03-16T13:43:51.221Z,16.10
2019-03-16T13:46:21.743Z,16.10
2019-03-16T13:48:52.203Z,16.00
2019-03-16T13:51:22.699Z,16.10
2019-03-16T13:53:53.161Z,16.00
2019-03-16T13:56:23.525Z,15.90
2019-03-16T13:58:54.239Z,15.80
2019-03-16T14:01:25.470Z,15.80
2019-03-16T14:03:55.887Z,15.90
2019-03-16T14:06:26.325Z,15.90
2019-03-16T14:08:57.091Z,15.90
2019-03-16T14:11:27.575Z,15.90
2019-03-16T14:13:58.044Z,15.70
2019-03-16T14:16:28.498Z,15.80
2019-03-16T14:18:59.241Z,15.90
2019-03-16T14:21:29.538Z,15.80
2019-03-16T14:24:00.023Z,15.70
2019-03-16T14:26:30.479Z,15.50
2019-03-16T14:29:00.822Z,15.50
2019-03-16T14:31:31.273Z,15.40
2019-03-16T14:34:01.624Z,15.30
2019-03-16T14:36:32.078Z,15.10
2019-03-16T14:39:02.700Z,15.00
2019-03-16T14:41:33.094Z,14.90
2019-03-16T14:44:03.926Z,14.90
2019-03-16T14:46:34.362Z,14.90
2019-03-16T14:49:04.866Z,15.00
2019-03-16T14:51:35.831Z,15.10
2019-03-16T14:54:06.304Z,15.20
2019-03-16T14:56:36.731Z,15.20
2019-03-16T14:59:07.176Z,15.20
2019-03-16T15:01:37.639Z,15.20
2019-03-16T15:04:08.007Z,15.10
2019-03-16T15:06:38.460Z,15.20
2019-03-16T15:09:09.530Z,15.40
2019-03-16T15:11:39.947Z,15.50
2019-03-16T15:14:21.074Z,15.70
2019-03-16T15:16:42.809Z,15.60
2019-03-16T15:19:13.660Z,15.70
2019-03-16T15:21:44.189Z,15.70
2019-03-16T15:24:14.534Z,15.60
2019-03-16T15:26:45.072Z,15.50
2019-03-16T15:29:15.586Z,15.50
2019-03-16T15:31:46.059Z,15.40
2019-03-16T15:34:16.600Z,15.30
2019-03-16T15:36:47.105Z,15.20
2019-03-16T15:39:19.919Z,15.10
2019-03-16T15:41:50.303Z,15.00
2019-03-16T15:44:22.266Z,15.00
2019-03-16T15:46:52.707Z,14.90
2019-03-16T15:49:23.155Z,14.80
2019-03-16T15:51:53.621Z,14.80
2019-03-16T15:54:23.949Z,14.70
2019-03-16T15:56:54.435Z,14.70
2019-03-16T15:59:24.965Z,14.60
2019-03-16T16:01:55.442Z,14.60
2019-03-16T16:04:25.750Z,14.60
2019-03-16T16:06:56.384Z,14.50
2019-03-16T16:09:26.794Z,14.50
2019-03-16T16:11:57.204Z,14.50
2019-03-16T16:14:27.665Z,14.40
2019-03-16T16:16:58.182Z,14.40
2019-03-16T16:19:28.487Z,14.40
2019-03-16T16:21:58.907Z,14.30
2019-03-16T16:24:29.337Z,14.30
2019-03-16T16:26:59.947Z,14.30
2019-03-16T16:29:30.285Z,14.20
2019-03-16T16:32:00.677Z,14.10
2019-03-16T16:34:31.240Z,14.10
2019-03-16T16:37:01.768Z,14.00
2019-03-16T16:39:32.188Z,13.90
2019-03-16T16:42:02.603Z,13.80
2019-03-16T16:44:33.057Z,13.70
2019-03-16T16:47:03.586Z,13.70
2019-03-16T16:49:34.103Z,13.60
2019-03-16T16:52:04.582Z,13.50
2019-03-16T16:54:37.605Z,13.40
2019-03-16T16:57:07.266Z,13.30
2019-03-16T16:59:37.564Z,13.30
2019-03-16T17:02:07.966Z,13.20
2019-03-16T17:04:38.419Z,13.20
2019-03-16T17:07:08.902Z,13.10
2019-03-16T17:09:39.339Z,13.10
2019-03-16T17:12:09.797Z,13.00
2019-03-16T17:14:40.176Z,12.90
2019-03-16T17:17:10.518Z,12.80
2019-03-16T17:19:40.940Z,12.80
2019-03-16T17:22:11.265Z,12.70
2019-03-16T17:24:41.907Z,12.70
2019-03-16T17:27:12.330Z,12.50
2019-03-16T17:29:42.628Z,12.50
2019-03-16T17:32:13.116Z,12.40
2019-03-16T17:34:43.567Z,12.30
2019-03-16T17:37:14.182Z,12.20
2019-03-16T17:39:44.952Z,12.20
2019-03-16T17:42:15.401Z,12.00
2019-03-16T17:44:45.837Z,12.00
2019-03-16T17:47:16.257Z,11.90
2019-03-16T17:49:46.675Z,11.80
2019-03-16T17:52:16.976Z,11.70
2019-03-16T17:54:47.316Z,11.60
2019-03-16T17:57:17.741Z,11.50
2019-03-16T17:59:48.191Z,11.50
2019-03-16T18:02:18.511Z,11.40
2019-03-16T18:04:48.959Z,11.30
2019-03-16T18:07:19.502Z,11.20
2019-03-16T18:09:49.895Z,11.30
2019-03-16T18:12:20.264Z,11.10
2019-03-16T18:14:50.758Z,11.00
2019-03-16T18:17:21.271Z,10.90
2019-03-16T18:19:51.605Z,10.90
2019-03-16T18:22:22.274Z,10.80
2019-03-16T18:24:52.638Z,10.80
2019-03-16T18:27:23.155Z,10.70
2019-03-16T18:29:53.612Z,10.70
2019-03-16T18:32:24.052Z,10.60
2019-03-16T18:34:54.455Z,10.50
2019-03-16T18:37:24.933Z,10.40
2019-03-16T18:39:55.304Z,10.40
2019-03-16T18:42:27.889Z,10.30
2019-03-16T18:44:57.868Z,10.30
2019-03-16T18:47:28.364Z,10.30
2019-03-16T18:49:58.730Z,10.30
2019-03-16T18:52:29.305Z,10.20
2019-03-16T18:54:59.852Z,10.20
2019-03-16T18:57:30.303Z,10.20
2019-03-16T19:00:00.714Z,10.20
2019-03-16T19:02:31.127Z,10.20
2019-03-16T19:05:01.470Z,10.20
2019-03-16T19:07:32.312Z,10.10
2019-03-16T19:10:02.820Z,10.00
2019-03-16T19:12:33.217Z,10.00
2019-03-16T19:15:03.666Z,9.90
2019-03-16T19:17:34.122Z,9.90
2019-03-16T19:20:05.146Z,9.90
2019-03-16T19:22:35.675Z,9.90
2019-03-16T19:25:07.174Z,9.80
2019-03-16T19:27:37.603Z,9.70
2019-03-16T19:30:10.202Z,9.70
2019-03-16T19:32:40.498Z,9.70
2019-03-16T19:35:11.091Z,9.60
2019-03-16T19:37:41.536Z,9.60
2019-03-16T19:40:12.569Z,9.60
2019-03-16T19:42:42.920Z,9.50
2019-03-16T19:45:13.548Z,9.40
2019-03-16T19:47:44.017Z,9.30
2019-03-16T19:50:14.525Z,9.20
2019-03-16T19:52:44.919Z,9.20
2019-03-16T19:55:15.860Z,9.20
2019-03-16T19:57:46.320Z,9.10
2019-03-16T20:00:16.680Z,9.00
2019-03-16T20:02:51.008Z,8.90
2019-03-16T20:05:19.561Z,8.80
2019-03-16T20:07:49.934Z,8.70
2019-03-16T20:10:20.609Z,8.70
2019-03-16T20:12:53.040Z,8.70
2019-03-16T20:15:24.116Z,8.60
2019-03-16T20:17:54.556Z,8.50
2019-03-16T20:20:24.929Z,8.60
2019-03-16T20:22:55.411Z,8.60
2019-03-16T20:25:25.836Z,8.60
2019-03-16T20:27:56.338Z,8.60
2019-03-16T20:30:27.359Z,8.60
2019-03-16T20:33:03.909Z,8.40
2019-03-16T20:35:29.978Z,8.50
2019-03-16T20:38:00.323Z,8.40
2019-03-16T20:40:30.611Z,8.30
2019-03-16T20:43:01.051Z,8.20
2019-03-16T20:45:31.784Z,8.20
2019-03-16T20:48:02.226Z,8.20
2019-03-16T20:50:32.668Z,8.20
2019-03-16T20:53:03.131Z,8.10
2019-03-16T20:55:34.479Z,8.10
2019-03-16T20:58:05.432Z,8.10
2019-03-16T21:00:35.983Z,8.00
2019-03-16T21:03:15.633Z,8.00
2019-03-16T21:05:38.498Z,8.00
2019-03-16T21:08:08.832Z,7.90
2019-03-16T21:10:39.204Z,7.90
2019-03-16T21:13:09.686Z,7.90
2019-03-16T21:15:40.067Z,7.90
2019-03-16T21:18:10.574Z,7.90
2019-03-16T21:20:40.895Z,7.80
2019-03-16T21:23:11.383Z,7.80
2019-03-16T21:25:41.855Z,7.90
2019-03-16T21:28:12.256Z,7.80
2019-03-16T21:30:42.699Z,7.80
2019-03-16T21:33:13.177Z,7.70
2019-03-16T21:35:43.606Z,7.60
2019-03-16T21:38:14.006Z,7.60
2019-03-16T21:40:44.461Z,7.60
2019-03-16T21:43:14.933Z,7.60
2019-03-16T21:45:45.315Z,7.60
2019-03-16T21:48:15.620Z,7.50
2019-03-16T21:50:46.090Z,7.50
2019-03-16T21:53:16.551Z,7.50
2019-03-16T21:55:47.026Z,7.50
2019-03-16T21:58:18.509Z,7.50
2019-03-16T22:00:48.840Z,7.40
2019-03-16T22:03:20.314Z,7.40
2019-03-16T22:05:50.756Z,7.40
2019-03-16T22:08:21.154Z,7.40
2019-03-16T22:10:51.579Z,7.30
2019-03-16T22:13:22.033Z,7.40
2019-03-16T22:15:54.320Z,7.40
2019-03-16T22:18:24.745Z,7.40
2019-03-16T22:20:55.224Z,7.30
2019-03-16T22:23:25.662Z,7.20
2019-03-16T22:25:56.188Z,7.20
2019-03-16T22:28:26.691Z,7.20
2019-03-16T22:30:57.134Z,7.10
2019-03-16T22:33:27.541Z,7.10
2019-03-16T22:35:58.095Z,7.00
2019-03-16T22:38:28.571Z,7.10
2019-03-16T22:40:58.996Z,7.10
2019-03-16T22:43:29.398Z,7.10
2019-03-16T22:45:59.874Z,7.10
2019-03-16T22:48:30.343Z,7.20
2019-03-16T22:51:00.734Z,7.10
2019-03-16T22:53:31.259Z,7.10
2019-03-16T22:56:01.813Z,7.10
2019-03-16T22:58:32.314Z,7.00
2019-03-16T23:01:04.401Z,7.00
2019-03-16T23:03:34.916Z,6.90
2019-03-16T23:06:05.375Z,6.80
2019-03-16T23:08:37.582Z,6.90
2019-03-16T23:11:08.033Z,6.80
2019-03-16T23:13:38.483Z,6.70
2019-03-16T23:16:08.950Z,6.80
2019-03-16T23:18:39.257Z,6.80
2019-03-16T23:21:09.722Z,6.80
2019-03-16T23:23:42.501Z,6.80
2019-03-16T23:26:12.219Z,6.80
2019-03-16T23:28:42.711Z,6.70
2019-03-16T23:31:13.164Z,6.80
2019-03-16T23:33:43.730Z,6.70
2019-03-16T23:36:14.123Z,6.90
2019-03-16T23:38:44.598Z,6.90
2019-03-16T23:41:15.089Z,6.90
2019-03-16T23:43:45.508Z,6.90
2019-03-16T23:46:15.846Z,6.90
2019-03-16T23:48:46.231Z,6.90
2019-03-16T23:51:17.013Z,6.90
2019-03-16T23:53:47.377Z,6.70
2019-03-16T23:56:17.866Z,6.70
2019-03-16T23:58:48.326Z,6.70
